WEATHER DATA

TODAY
Time Temp. Dewp. Hum. Bar. 1h Prec. 24h Prec.
00:08 4.2 2.1 86 1021.8 0.0000 0.0000
00:18 4.1 2 86 1021.8 0.0000 0.0000
00:27 4.1 2 86 1021.7 0.0000 0.0000
00:38 4.1 2 86 1021.7 0.0000 0.0000
00:48 4.1 2 86 1021.7 0.0000 0.0000
00:58 4.2 2.2 87 1021.6 0.0000 0.0000
01:08 4.2 2.2 87 1021.6 0.0000 0.0000
01:18 4.1 2 86 1021.6 0.0000 0.0000
01:28 4.1 2 86 1021.6 0.0000 0.0000
01:38 4.1 2.1 87 1021.6 0.0000 0.0000
01:48 4.1 2.1 87 1021.4 0.0000 0.0000
01:59 4.1 2.1 87 1021.4 0.0000 0.0000
02:08 4.1 2.1 87 1021.4 0.0000 0.0000
02:18 4.2 2.2 87 1021.4 0.0000 0.0000
02:29 4.1 2.1 87 1021.4 0.0000 0.0000
02:39 4.1 2.1 87 1021.6 0.0000 0.0000
02:48 4.1 2.1 87 1021.3 0.0000 0.0000
02:59 4.1 2.1 87 1021.4 0.0000 0.0000
03:09 4.1 2.1 87 1021.2 0.0000 0.0000
03:19 4.1 2.1 87 1021.2 0.0000 0.0000
03:29 4.1 2.1 87 1021 0.0000 0.0000
03:39 4.1 2.1 87 1021.1 0.0000 0.0000
03:49 4.2 2.2 87 1021.1 0.0000 0.0000
03:59 4.3 2.3 87 1021 0.0000 0.0000
04:09 4.4 2.4 87 1021 0.0000 0.0000
04:20 4.5 2.5 87 1020.8 0.0000 0.0000
04:29 4.5 2.5 87 1020.7 0.0000 0.0000
04:39 4.6 2.6 87 1020.7 0.0000 0.0000
04:50 4.6 2.6 87 1020.5 0.0000 0.0000
05:00 4.6 2.6 87 1020.6 0.0000 0.0000
05:10 4.6 2.6 87 1020.6 0.0000 0.0000
05:20 4.6 2.6 87 1020.5 0.0000 0.0000
05:30 4.6 2.6 87 1020.6 0.0000 0.0000
05:40 4.6 2.6 87 1020.4 0.0000 0.0000
05:50 4.4 2.4 87 1020.5 0.0000 0.0000
06:01 4.2 2.2 87 1020.4 0.0000 0.0000
06:10 4 2 87 1020.5 0.0000 0.0000
06:20 3.9 1.9 87 1020.6 0.0000 0.0000
06:30 3.7 1.7 87 1020.4 0.0000 0.0000
06:41 3.6 1.6 87 1020.3 0.0000 0.0000
06:51 3.5 1.7 88 1020.4 0.0000 0.0000
07:00 3.5 1.7 88 1020.3 0.0000 0.0000
07:11 3.4 1.6 88 1020.3 0.0000 0.0000
07:21 3.4 1.6 88 1020.2 0.0000 0.0000
07:31 3.4 1.6 88 1020.2 0.0000 0.0000
07:41 3.4 1.6 88 1020.1 0.0000 0.0000
07:51 3.4 1.6 88 1020.2 0.0000 0.0000
08:01 3.3 1.5 88 1020.2 0.0000 0.0000
08:11 3.2 1.4 88 1020.3 0.0000 0.0000
08:22 3.2 1.4 88 1020.3 0.0000 0.0000
08:32 3.3 1.5 88 1020.4 0.0000 0.0000
08:41 3.4 1.6 88 1020.5 0.0000 0.0000
08:51 3.6 1.8 88 1020.5 0.0000 0.0000
09:02 3.9 2.1 88 1020.5 0.0000 0.0000
09:12 4.3 2.7 89 1020.5 0.0000 0.0000
09:21 4.7 3 89 1020.5 0.0000 0.0000
09:32 5.2 3.5 89 1020.6 0.0000 0.0000
09:42 5.6 3.8 88 1020.7 0.0000 0.0000
09:52 6 4.2 88 1020.7 0.0000 0.0000
10:02 6.4 4.6 88 1020.7 0.0000 0.0000
10:12 7 5.2 88 1020.7 0.0000 0.0000
10:22 7.5 5.6 88 1020.8 0.0000 0.0000
10:32 7.9 6 88 1020.7 0.0000 0.0000
10:43 8.1 6.2 88 1020.6 0.0000 0.0000
10:53 8.2 6.2 87 1020.6 0.0000 0.0000
11:02 8.3 6.3 87 1020.5 0.0000 0.0000
11:12 8.6 6.6 87 1020.5 0.0000 0.0000
11:23 9 7 87 1020.5 0.0000 0.0000
11:33 9.3 7.3 87 1020.4 0.0000 0.0000
11:43 9.8 7.7 87 1020.4 0.0000 0.0000
11:53 10.1 7.9 86 1020.5 0.0000 0.0000
12:03 10.4 8.2 86 1020.5 0.0000 0.0000
12:13 10.9 8.7 86 1020.4 0.0000 0.0000
12:23 11.3 9 86 1020.4 0.0000 0.0000
12:34 11.5 9.1 85 1020.3 0.0000 0.0000
12:43 11.8 9.4 85 1020.2 0.0000 0.0000
12:53 12.2 9.6 84 1020.1 0.0000 0.0000

DAY STATISTIC

2021-10-25
TEMPERATURE
AVERAGE
5.3
HIGH
12.2
12:53
LOW
3.2
08:11
PRESSURE
AVERAGE
1020.8
HIGH
1021.8
00:08
LOW
1020.1
07:41
DEWPOINT
AVERAGE
3.4
HIGH
9.6
12:53
LOW
1.4
08:11
HUMIDITY
AVERAGE
87
HIGH
89
09:12
LOW
84
12:53
PRECIPITATION
RAIN HOUR
0.0
RAIN DAY
0.0
TEMPERATURE (°C)
LOW
3.2
HIGH
12.2
AVERAGE
5.3
PRESSURE (hpa)
LOW
1020.1
HIGH
1021.8
AVERAGE
1020.8
DEVICE